createdAt,value
2023-03-06T00:00:17.615Z,100840.75
2023-03-06T00:02:45.707Z,100835.72
2023-03-06T00:05:14.205Z,100830.34
2023-03-06T00:07:42.049Z,100828.78
2023-03-06T00:10:14.220Z,100820.31
2023-03-06T00:12:43.685Z,100817.66
2023-03-06T00:15:12.519Z,100821.59
2023-03-06T00:17:40.954Z,100817.69
2023-03-06T00:20:10.924Z,100820.88
2023-03-06T00:22:38.823Z,100817.41
2023-03-06T00:25:08.115Z,100805.47
2023-03-06T00:27:35.919Z,100809.38
2023-03-06T00:30:06.169Z,100798.63
2023-03-06T00:32:35.297Z,100801.44
2023-03-06T00:35:03.668Z,100795.53
2023-03-06T00:37:31.439Z,100796.81
2023-03-06T00:39:59.268Z,100793.50
2023-03-06T00:42:27.028Z,100785.09
2023-03-06T00:44:54.992Z,100774.03
2023-03-06T00:47:24.864Z,100768.78
2023-03-06T00:49:53.057Z,100768.09
2023-03-06T00:52:20.983Z,100763.50
2023-03-06T00:54:48.749Z,100762.81
2023-03-06T00:57:16.586Z,100755.50
2023-03-06T00:59:44.342Z,100758.94
2023-03-06T01:02:12.153Z,100760.06
2023-03-06T01:04:41.351Z,100760.81
2023-03-06T01:07:09.175Z,100751.13
2023-03-06T01:09:36.946Z,100746.88
2023-03-06T01:12:05.076Z,100738.81
2023-03-06T01:14:32.838Z,100733.78
2023-03-06T01:17:00.614Z,100737.69
2023-03-06T01:19:28.461Z,100739.59
2023-03-06T01:21:57.615Z,100730.34
2023-03-06T01:24:26.016Z,100724.91
2023-03-06T01:26:57.536Z,100723.38
2023-03-06T01:29:26.358Z,100729.91
2023-03-06T01:31:54.244Z,100733.03
2023-03-06T01:34:22.089Z,100733.78
2023-03-06T01:36:49.971Z,100727.66
2023-03-06T01:39:19.119Z,100727.66
2023-03-06T01:41:47.467Z,100733.47
2023-03-06T01:44:15.275Z,100725.41
2023-03-06T01:46:44.041Z,100735.06
2023-03-06T01:49:19.681Z,100726.22
2023-03-06T01:51:53.489Z,100723.22
2023-03-06T01:54:26.432Z,100726.72
2023-03-06T01:56:57.647Z,100714.84
2023-03-06T01:59:26.915Z,100711.75
2023-03-06T02:01:55.876Z,100716.00
2023-03-06T02:04:24.791Z,100707.19
2023-03-06T02:06:53.005Z,100701.41
2023-03-06T02:09:20.923Z,100701.06
2023-03-06T02:11:50.077Z,100699.13
2023-03-06T02:14:19.021Z,100700.31
2023-03-06T02:16:46.973Z,100690.34
2023-03-06T02:19:29.947Z,100688.06
2023-03-06T02:21:57.908Z,100691.16
2023-03-06T02:24:36.508Z,100686.16
2023-03-06T02:27:08.058Z,100693.09
2023-03-06T02:29:36.405Z,100693.91
2023-03-06T02:32:05.212Z,100695.09
2023-03-06T02:34:56.942Z,100688.59
2023-03-06T02:37:26.427Z,100684.72
2023-03-06T02:40:03.487Z,100682.41
2023-03-06T02:42:32.788Z,100671.66
2023-03-06T02:45:03.305Z,100674.75
2023-03-06T02:47:31.748Z,100675.16
2023-03-06T02:50:00.130Z,100675.53
2023-03-06T02:52:27.953Z,100668.66
2023-03-06T02:54:56.783Z,100659.03
2023-03-06T02:57:24.985Z,100657.09
2023-03-06T02:59:54.979Z,100652.09
2023-03-06T03:02:22.798Z,100641.34
2023-03-06T03:04:50.683Z,100631.34
2023-03-06T03:07:18.949Z,100635.16
2023-03-06T03:09:46.917Z,100633.63
2023-03-06T03:12:14.849Z,100626.31
2023-03-06T03:14:42.644Z,100626.28
2023-03-06T03:17:11.855Z,100620.88
2023-03-06T03:19:39.690Z,100615.09
2023-03-06T03:22:07.937Z,100611.25
2023-03-06T03:24:35.796Z,100612.78
2023-03-06T03:27:04.012Z,100607.81
2023-03-06T03:29:32.621Z,100604.72
2023-03-06T03:32:00.643Z,100606.25
2023-03-06T03:34:29.974Z,100607.00
2023-03-06T03:36:58.470Z,100602.38
2023-03-06T03:39:26.532Z,100595.06
2023-03-06T03:41:54.322Z,100598.50
2023-03-06T03:44:22.417Z,100602.38
2023-03-06T03:46:50.241Z,100599.25
2023-03-06T03:49:21.976Z,100587.34
2023-03-06T03:51:52.672Z,100586.97
2023-03-06T03:54:21.918Z,100581.19
2023-03-06T03:56:51.324Z,100579.25
2023-03-06T03:59:24.950Z,100585.75
2023-03-06T04:02:04.707Z,100585.34
2023-03-06T04:04:36.763Z,100579.97
2023-03-06T04:07:06.270Z,100573.78
2023-03-06T04:09:34.178Z,100574.13
2023-03-06T04:12:02.329Z,100575.25
2023-03-06T04:14:31.213Z,100575.25
2023-03-06T04:16:59.143Z,100566.00
2023-03-06T04:19:27.207Z,100570.25
2023-03-06T04:21:55.044Z,100560.59
2023-03-06T04:24:24.383Z,100561.75
2023-03-06T04:26:53.004Z,100559.44
2023-03-06T04:29:20.832Z,100557.53
2023-03-06T04:31:48.708Z,100557.88
2023-03-06T04:34:16.602Z,100553.66
2023-03-06T04:36:46.083Z,100549.03
2023-03-06T04:39:16.622Z,100548.66
2023-03-06T04:41:45.930Z,100544.78
2023-03-06T04:44:13.861Z,100547.84
2023-03-06T04:46:41.629Z,100549.00
2023-03-06T04:49:09.500Z,100539.75
2023-03-06T04:51:37.738Z,100539.38
2023-03-06T04:54:05.900Z,100540.88
2023-03-06T04:56:34.547Z,100538.19
2023-03-06T04:59:05.027Z,100524.34
2023-03-06T05:01:32.850Z,100539.31
2023-03-06T05:04:00.667Z,100531.25
2023-03-06T05:06:28.480Z,100531.59
2023-03-06T05:08:56.367Z,100545.44
2023-03-06T05:11:24.140Z,100538.09
2023-03-06T05:13:52.294Z,100536.53
2023-03-06T05:16:21.509Z,100534.22
2023-03-06T05:18:50.743Z,100533.44
2023-03-06T05:21:18.589Z,100534.91
2023-03-06T05:23:47.579Z,100530.66
2023-03-06T05:26:16.214Z,100525.63
2023-03-06T05:28:44.011Z,100527.50
2023-03-06T05:31:11.921Z,100524.00
2023-03-06T05:33:41.095Z,100520.53
2023-03-06T05:36:10.319Z,100521.28
2023-03-06T05:38:38.110Z,100513.97
2023-03-06T05:41:06.208Z,100519.38
2023-03-06T05:43:34.027Z,100507.06
2023-03-06T05:46:03.467Z,100513.59
2023-03-06T05:48:31.636Z,100513.59
2023-03-06T05:51:02.661Z,100506.25
2023-03-06T05:53:31.334Z,100508.19
2023-03-06T05:56:00.200Z,100509.38
2023-03-06T05:58:28.929Z,100513.59
2023-03-06T06:00:56.892Z,100503.22
2023-03-06T06:03:25.053Z,100510.53
2023-03-06T06:05:53.512Z,100513.66
2023-03-06T06:08:22.864Z,100508.66
2023-03-06T06:10:53.322Z,100515.19
2023-03-06T06:13:21.330Z,100530.22
2023-03-06T06:15:49.136Z,100531.41
2023-03-06T06:18:16.985Z,100532.91
2023-03-06T06:20:44.780Z,100525.63
2023-03-06T06:23:12.816Z,100527.91
2023-03-06T06:25:42.242Z,100527.13
2023-03-06T06:28:10.066Z,100530.19
2023-03-06T06:30:38.343Z,100532.50
2023-03-06T06:33:06.181Z,100533.59
2023-03-06T06:35:37.228Z,100537.00
2023-03-06T06:38:05.174Z,100520.84
2023-03-06T06:40:32.982Z,100531.19
2023-03-06T06:43:02.139Z,100531.50
2023-03-06T06:45:29.964Z,100531.88
2023-03-06T06:47:58.039Z,100524.91
2023-03-06T06:50:25.981Z,100533.34
2023-03-06T06:52:53.715Z,100532.91
2023-03-06T06:55:21.552Z,100528.66
2023-03-06T06:57:49.315Z,100529.34
2023-03-06T07:00:20.315Z,100529.31
2023-03-06T07:02:49.194Z,100534.97
2023-03-06T07:05:17.216Z,100531.91
2023-03-06T07:07:45.058Z,100533.78
2023-03-06T07:10:15.708Z,100541.81
2023-03-06T07:12:43.790Z,100545.22
2023-03-06T07:15:13.666Z,100542.47
2023-03-06T07:17:42.793Z,100545.44
2023-03-06T07:20:12.647Z,100547.34
2023-03-06T07:22:50.409Z,100541.88
2023-03-06T07:25:19.732Z,100551.03
2023-03-06T07:27:53.299Z,100547.41
2023-03-06T07:30:22.370Z,100553.47
2023-03-06T07:32:53.931Z,100554.50
2023-03-06T07:35:22.044Z,100549.34
2023-03-06T07:37:49.953Z,100560.31
2023-03-06T07:40:19.584Z,100562.31
2023-03-06T07:42:47.794Z,100556.25
2023-03-06T07:45:19.582Z,100557.88
2023-03-06T07:47:55.336Z,100554.47
2023-03-06T07:50:23.237Z,100555.00
2023-03-06T07:52:51.603Z,100556.94
2023-03-06T07:55:19.787Z,100550.72
2023-03-06T07:57:47.623Z,100546.44
2023-03-06T08:00:16.901Z,100559.03
2023-03-06T08:02:44.882Z,100559.03
2023-03-06T08:05:16.520Z,100563.34
2023-03-06T08:07:45.041Z,100560.22
2023-03-06T08:10:15.350Z,100560.72
2023-03-06T08:12:43.278Z,100565.69
2023-03-06T08:15:12.498Z,100558.72
2023-03-06T08:17:40.653Z,100568.88
2023-03-06T08:20:11.443Z,100565.75
2023-03-06T08:22:40.773Z,100566.50
2023-03-06T08:25:09.411Z,100557.72
2023-03-06T08:27:37.332Z,100565.31
2023-03-06T08:30:05.668Z,100559.75
2023-03-06T08:32:36.198Z,100561.81
2023-03-06T08:35:04.400Z,100566.69
2023-03-06T08:37:32.257Z,100566.28
2023-03-06T08:40:02.633Z,100560.47
2023-03-06T08:42:30.466Z,100564.81
2023-03-06T08:44:58.263Z,100558.53
2023-03-06T08:47:26.129Z,100557.09
2023-03-06T08:49:53.922Z,100557.13
2023-03-06T08:52:21.697Z,100557.09
2023-03-06T08:54:49.462Z,100554.59
2023-03-06T08:57:18.709Z,100554.75
2023-03-06T08:59:46.535Z,100555.84
2023-03-06T09:02:15.265Z,100552.84
2023-03-06T09:04:43.156Z,100556.63
2023-03-06T09:07:10.903Z,100560.34
2023-03-06T09:09:38.669Z,100558.25
2023-03-06T09:12:06.751Z,100562.25
2023-03-06T09:14:35.897Z,100553.44
2023-03-06T09:17:03.703Z,100559.91
2023-03-06T09:19:31.482Z,100560.81
2023-03-06T09:22:00.976Z,100561.94
2023-03-06T09:24:29.031Z,100559.81
2023-03-06T09:26:56.888Z,100552.41
2023-03-06T09:29:24.667Z,100559.69
2023-03-06T09:31:53.768Z,100553.09
2023-03-06T09:34:21.699Z,100560.81
2023-03-06T09:36:56.401Z,100557.53
2023-03-06T09:39:25.820Z,100560.91
2023-03-06T09:41:54.926Z,100549.22
2023-03-06T09:44:25.987Z,100552.13
2023-03-06T09:47:11.629Z,100558.63
2023-03-06T09:49:50.947Z,100547.84
2023-03-06T09:52:32.412Z,100549.94
2023-03-06T09:55:03.391Z,100554.03
2023-03-06T09:57:32.823Z,100556.56
2023-03-06T10:00:04.657Z,100550.38
2023-03-06T10:02:38.321Z,100554.03
2023-03-06T10:05:13.391Z,100555.38
2023-03-06T10:07:47.964Z,100556.13
2023-03-06T10:10:21.776Z,100558.19
2023-03-06T10:12:58.614Z,100563.03
2023-03-06T10:15:30.836Z,100562.28
2023-03-06T10:17:58.722Z,100558.78
2023-03-06T10:20:29.673Z,100561.50
2023-03-06T10:23:13.246Z,100554.84
2023-03-06T10:25:50.820Z,100562.09
2023-03-06T10:28:22.181Z,100556.03
2023-03-06T10:30:55.247Z,100557.56
2023-03-06T10:33:29.101Z,100557.56
2023-03-06T10:35:58.532Z,100548.47
2023-03-06T10:38:28.429Z,100548.69
2023-03-06T10:41:08.828Z,100548.56
2023-03-06T10:43:37.709Z,100549.28
2023-03-06T10:46:06.918Z,100559.50
2023-03-06T10:48:37.051Z,100542.31
2023-03-06T10:51:19.079Z,100551.06
2023-03-06T10:53:52.921Z,100547.75
2023-03-06T10:56:32.405Z,100543.09
2023-03-06T10:59:07.721Z,100539.91
2023-03-06T11:01:36.870Z,100536.47
2023-03-06T11:04:17.973Z,100534.19
2023-03-06T11:06:47.170Z,100528.97
2023-03-06T11:09:17.586Z,100533.69
2023-03-06T11:11:45.439Z,100527.03
2023-03-06T11:14:16.418Z,100522.34
2023-03-06T11:16:52.717Z,100517.41
2023-03-06T11:19:24.552Z,100516.59
2023-03-06T11:22:05.031Z,100518.78
2023-03-06T11:24:39.020Z,100520.47
2023-03-06T11:27:23.633Z,100515.09
2023-03-06T11:29:55.279Z,100510.75
2023-03-06T11:32:28.806Z,100504.53
2023-03-06T11:35:02.285Z,100502.78
2023-03-06T11:37:43.631Z,100500.81
2023-03-06T11:40:18.576Z,100505.97
2023-03-06T11:42:52.636Z,100500.84
2023-03-06T11:45:26.260Z,100488.78
2023-03-06T11:48:02.806Z,100494.69
2023-03-06T11:50:35.671Z,100494.56
2023-03-06T11:53:07.354Z,100494.63
2023-03-06T11:55:45.653Z,100488.91
2023-03-06T11:58:33.683Z,100484.72
2023-03-06T12:01:07.291Z,100483.41
2023-03-06T12:03:57.611Z,100480.50
2023-03-06T12:06:36.312Z,100477.53
2023-03-06T12:09:24.223Z,100475.66
2023-03-06T12:12:08.070Z,100467.81
2023-03-06T12:14:51.862Z,100469.25
2023-03-06T12:17:27.526Z,100470.19
2023-03-06T12:20:23.150Z,100465.81
2023-03-06T12:22:58.251Z,100461.50
2023-03-06T12:25:44.992Z,100467.81
2023-03-06T12:28:29.061Z,100462.72
2023-03-06T12:31:16.019Z,100453.34
2023-03-06T12:33:53.415Z,100455.88
2023-03-06T12:36:39.808Z,100461.00
2023-03-06T12:39:15.808Z,100456.59
2023-03-06T12:42:17.869Z,100453.66
2023-03-06T12:45:05.889Z,100444.22
2023-03-06T12:47:40.555Z,100435.13
2023-03-06T12:50:19.111Z,100445.16
2023-03-06T12:52:49.183Z,100443.81
2023-03-06T12:55:22.767Z,100439.28
2023-03-06T12:57:54.088Z,100431.41
2023-03-06T13:01:04.888Z,100432.88
2023-03-06T13:03:49.290Z,100436.16
2023-03-06T13:06:39.056Z,100415.47
2023-03-06T13:09:19.971Z,100420.81
2023-03-06T13:12:24.687Z,100419.53
2023-03-06T13:15:01.910Z,100418.47
2023-03-06T13:17:38.476Z,100413.34
2023-03-06T13:20:30.413Z,100409.53
2023-03-06T13:22:58.739Z,100400.16
2023-03-06T13:25:47.849Z,100389.91
2023-03-06T13:28:27.829Z,100389.72
2023-03-06T13:30:57.108Z,100386.25
2023-03-06T13:33:54.509Z,100374.00
2023-03-06T13:36:30.803Z,100373.91
2023-03-06T13:39:03.414Z,100369.09
2023-03-06T13:41:43.692Z,100361.50
2023-03-06T13:44:48.744Z,100363.22
2023-03-06T13:47:32.178Z,100359.91
2023-03-06T13:50:01.215Z,100360.19
2023-03-06T13:52:40.850Z,100365.31
2023-03-06T13:55:23.930Z,100368.59
2023-03-06T13:57:57.898Z,100350.59
2023-03-06T14:00:58.715Z,100348.56
2023-03-06T14:03:54.301Z,100343.72
2023-03-06T14:07:01.278Z,100345.38
2023-03-06T14:09:30.871Z,100339.06
2023-03-06T14:12:03.486Z,100334.75
2023-03-06T14:14:40.259Z,100325.25
2023-03-06T14:17:16.084Z,100329.66
2023-03-06T14:19:45.256Z,100313.69
2023-03-06T14:22:19.112Z,100315.31
2023-03-06T14:24:56.500Z,100317.50
2023-03-06T14:27:39.424Z,100314.16
2023-03-06T14:30:09.802Z,100311.44
2023-03-06T14:32:39.711Z,100312.34
2023-03-06T14:35:24.690Z,100311.34
2023-03-06T14:37:54.635Z,100307.91
2023-03-06T14:40:28.480Z,100295.53
2023-03-06T14:43:20.127Z,100299.31
2023-03-06T14:45:58.604Z,100295.75
2023-03-06T14:48:38.412Z,100294.28
2023-03-06T14:51:12.808Z,100297.31
2023-03-06T14:53:40.747Z,100292.38
2023-03-06T14:56:08.856Z,100300.47
2023-03-06T14:58:41.980Z,100291.44
2023-03-06T15:01:13.099Z,100294.97
2023-03-06T15:03:45.199Z,100297.59
2023-03-06T15:06:18.886Z,100294.66
2023-03-06T15:08:49.372Z,100276.81
2023-03-06T15:11:17.159Z,100269.66
2023-03-06T15:14:01.610Z,100267.81
2023-03-06T15:16:30.666Z,100263.06
2023-03-06T15:19:00.507Z,100262.03
2023-03-06T15:21:35.020Z,100253.16
2023-03-06T15:24:03.078Z,100260.72
2023-03-06T15:26:33.310Z,100254.34
2023-03-06T15:29:18.942Z,100258.69
2023-03-06T15:31:47.325Z,100250.44
2023-03-06T15:34:18.623Z,100255.75
2023-03-06T15:36:48.481Z,100253.16
2023-03-06T15:39:38.931Z,100254.34
2023-03-06T15:42:19.105Z,100248.28
2023-03-06T15:44:51.528Z,100244.25
2023-03-06T15:47:19.854Z,100255.53
2023-03-06T15:49:51.773Z,100245.81
2023-03-06T15:52:21.764Z,100244.28
2023-03-06T15:54:49.885Z,100229.47
2023-03-06T15:57:22.731Z,100231.09
2023-03-06T15:59:51.405Z,100221.16
2023-03-06T16:02:20.654Z,100220.16
2023-03-06T16:04:49.358Z,100228.09
2023-03-06T16:07:17.527Z,100214.66
2023-03-06T16:09:47.419Z,100218.16
2023-03-06T16:12:17.670Z,100220.63
2023-03-06T16:14:45.732Z,100219.44
2023-03-06T16:17:13.814Z,100223.78
2023-03-06T16:19:42.052Z,100206.34
2023-03-06T16:22:09.856Z,100215.75
2023-03-06T16:24:37.723Z,100205.75
2023-03-06T16:27:07.245Z,100208.75
2023-03-06T16:29:35.185Z,100216.72
2023-03-06T16:32:04.507Z,100211.09
2023-03-06T16:34:32.305Z,100215.94
2023-03-06T16:37:00.109Z,100208.44
2023-03-06T16:39:27.880Z,100199.75
2023-03-06T16:41:56.352Z,100189.69
2023-03-06T16:44:25.536Z,100187.06
2023-03-06T16:46:53.339Z,100186.31
2023-03-06T16:49:23.869Z,100180.97
2023-03-06T16:51:52.691Z,100181.09
2023-03-06T16:54:21.808Z,100175.88
2023-03-06T16:56:49.828Z,100170.47
2023-03-06T16:59:17.630Z,100174.50
2023-03-06T17:01:46.858Z,100170.31
2023-03-06T17:04:14.714Z,100180.66
2023-03-06T17:06:43.161Z,100171.81
2023-03-06T17:09:11.404Z,100171.81
2023-03-06T17:11:39.513Z,100165.66
2023-03-06T17:14:07.710Z,100155.28
2023-03-06T17:16:37.058Z,100156.16
2023-03-06T17:19:06.242Z,100157.34
2023-03-06T17:21:35.372Z,100147.81
2023-03-06T17:24:03.851Z,100142.84
2023-03-06T17:26:31.906Z,100145.94
2023-03-06T17:28:59.876Z,100139.81
2023-03-06T17:31:29.307Z,100129.34
2023-03-06T17:34:00.444Z,100132.03
2023-03-06T17:36:30.659Z,100137.44
2023-03-06T17:38:59.999Z,100139.38
2023-03-06T17:41:28.405Z,100126.31
2023-03-06T17:43:58.146Z,100122.09
2023-03-06T17:46:26.234Z,100123.63
2023-03-06T17:48:54.393Z,100111.22
2023-03-06T17:51:22.200Z,100118.44
2023-03-06T17:53:52.218Z,100119.13
2023-03-06T17:56:20.368Z,100117.19
2023-03-06T17:58:48.293Z,100114.81
2023-03-06T18:01:18.646Z,100121.75
2023-03-06T18:03:48.190Z,100107.47
2023-03-06T18:06:17.075Z,100116.75
2023-03-06T18:08:45.800Z,100106.38
2023-03-06T18:11:15.279Z,100109.53
2023-03-06T18:13:44.591Z,100104.22
2023-03-06T18:16:14.212Z,100112.41
2023-03-06T18:18:42.340Z,100105.06
2023-03-06T18:21:12.075Z,100099.34
2023-03-06T18:23:41.533Z,100097.84
2023-03-06T18:26:12.442Z,100096.41
2023-03-06T18:28:44.429Z,100097.69
2023-03-06T18:31:16.977Z,100092.13
2023-03-06T18:33:45.088Z,100082.69
2023-03-06T18:36:12.901Z,100084.81
2023-03-06T18:38:43.954Z,100071.84
2023-03-06T18:41:12.136Z,100078.50
2023-03-06T18:43:41.309Z,100073.28
2023-03-06T18:46:09.513Z,100064.50
2023-03-06T18:48:37.547Z,100062.22
2023-03-06T18:51:06.342Z,100058.44
2023-03-06T18:53:34.246Z,100058.88
2023-03-06T18:56:02.087Z,100040.84
2023-03-06T18:58:30.648Z,100057.44
2023-03-06T19:01:02.140Z,100037.47
2023-03-06T19:03:30.050Z,100039.41
2023-03-06T19:05:59.120Z,100049.09
2023-03-06T19:08:26.934Z,100027.97
2023-03-06T19:10:54.733Z,100019.53
2023-03-06T19:13:22.464Z,100025.34
2023-03-06T19:15:50.354Z,100020.38
2023-03-06T19:18:19.534Z,100010.78
2023-03-06T19:20:47.349Z,100008.50
2023-03-06T19:23:15.135Z,100009.25
2023-03-06T19:25:43.054Z,100007.75
2023-03-06T19:28:10.863Z,99995.13
2023-03-06T19:30:41.143Z,99999.00
2023-03-06T19:33:08.942Z,100000.25
2023-03-06T19:35:38.165Z,99991.81
2023-03-06T19:38:06.172Z,99991.94
2023-03-06T19:40:34.355Z,99990.41
2023-03-06T19:43:02.358Z,99990.50
2023-03-06T19:45:30.256Z,99975.94
2023-03-06T19:48:00.840Z,99966.00
2023-03-06T19:50:29.729Z,99973.31
2023-03-06T19:52:59.096Z,99962.19
2023-03-06T19:55:28.615Z,99965.66
2023-03-06T19:57:56.452Z,99952.63
2023-03-06T20:00:24.708Z,99942.59
2023-03-06T20:02:52.566Z,99948.72
2023-03-06T20:05:20.487Z,99937.13
2023-03-06T20:07:48.308Z,99927.88
2023-03-06T20:10:18.320Z,99929.28
2023-03-06T20:12:46.523Z,99920.81
2023-03-06T20:15:14.344Z,99916.91
2023-03-06T20:17:42.137Z,99919.53
2023-03-06T20:20:12.016Z,99901.78
2023-03-06T20:22:39.897Z,99903.19
2023-03-06T20:25:08.131Z,99898.16
2023-03-06T20:27:37.527Z,99889.22
2023-03-06T20:30:08.003Z,99877.16
2023-03-06T20:32:38.430Z,99888.94
2023-03-06T20:35:08.380Z,99880.66
2023-03-06T20:37:36.174Z,99873.66
2023-03-06T20:40:04.494Z,99876.38
2023-03-06T20:42:32.297Z,99874.22
2023-03-06T20:45:01.468Z,99877.47
2023-03-06T20:47:29.254Z,99870.91
2023-03-06T20:49:57.217Z,99849.34
2023-03-06T20:52:27.542Z,99852.38
2023-03-06T20:54:55.316Z,99839.53
2023-03-06T20:57:23.099Z,99845.91
2023-03-06T20:59:50.875Z,99830.41
2023-03-06T21:02:20.034Z,99827.72
2023-03-06T21:04:47.848Z,99827.59
2023-03-06T21:07:16.912Z,99821.78
2023-03-06T21:09:44.696Z,99816.25
2023-03-06T21:12:12.473Z,99826.22
2023-03-06T21:14:40.231Z,99822.22
2023-03-06T21:17:07.989Z,99813.25
2023-03-06T21:19:37.199Z,99814.34
2023-03-06T21:22:05.027Z,99799.97
2023-03-06T21:24:32.853Z,99793.09
2023-03-06T21:27:00.631Z,99797.63
2023-03-06T21:29:28.426Z,99794.81
2023-03-06T21:31:56.179Z,99801.28
2023-03-06T21:34:24.004Z,99796.22
2023-03-06T21:36:53.167Z,99799.56
2023-03-06T21:39:21.016Z,99796.44
2023-03-06T21:41:48.831Z,99794.81
2023-03-06T21:44:16.623Z,99791.69
2023-03-06T21:46:44.374Z,99786.47
2023-03-06T21:49:12.161Z,99803.31
2023-03-06T21:51:39.998Z,99789.59
2023-03-06T21:54:09.721Z,99777.19
2023-03-06T21:56:37.569Z,99784.09
2023-03-06T21:59:05.434Z,99784.28
2023-03-06T22:01:33.840Z,99794.66
2023-03-06T22:04:01.729Z,99793.47
2023-03-06T22:06:31.233Z,99778.34
2023-03-06T22:09:01.325Z,99784.38
2023-03-06T22:11:34.197Z,99785.03
2023-03-06T22:14:02.153Z,99774.56
2023-03-06T22:16:30.111Z,99774.09
2023-03-06T22:18:57.920Z,99757.47
2023-03-06T22:21:26.013Z,99760.50
2023-03-06T22:23:57.219Z,99767.84
2023-03-06T22:26:25.184Z,99767.84
2023-03-06T22:28:54.343Z,99764.38
2023-03-06T22:31:24.785Z,99760.91
2023-03-06T22:33:53.117Z,99757.47
2023-03-06T22:36:21.740Z,99769.91
2023-03-06T22:38:50.663Z,99759.09
2023-03-06T22:41:20.090Z,99752.94
2023-03-06T22:43:48.383Z,99754.91
2023-03-06T22:46:18.868Z,99753.69
2023-03-06T22:48:46.723Z,99754.13
2023-03-06T22:51:16.380Z,99752.63
2023-03-06T22:53:44.881Z,99758.03
2023-03-06T22:56:14.635Z,99747.22
2023-03-06T22:58:44.754Z,99742.25
2023-03-06T23:01:15.238Z,99744.63
2023-03-06T23:03:46.049Z,99742.72
2023-03-06T23:06:16.451Z,99750.50
2023-03-06T23:08:49.097Z,99745.41
2023-03-06T23:11:19.474Z,99748.13
2023-03-06T23:14:06.090Z,99741.94
2023-03-06T23:16:52.843Z,99742.41
2023-03-06T23:19:40.442Z,99743.56
2023-03-06T23:22:26.750Z,99743.25
2023-03-06T23:25:13.132Z,99736.66
2023-03-06T23:27:41.079Z,99739.78
2023-03-06T23:30:10.405Z,99737.84
2023-03-06T23:32:38.223Z,99744.03
2023-03-06T23:35:08.567Z,99742.81
2023-03-06T23:37:36.339Z,99737.41
2023-03-06T23:40:07.759Z,99734.72
2023-03-06T23:42:35.371Z,99734.28
2023-03-06T23:45:03.191Z,99732.22
2023-03-06T23:47:32.923Z,99731.03
2023-03-06T23:50:00.723Z,99730.03
2023-03-06T23:52:29.875Z,99724.06
2023-03-06T23:54:57.674Z,99732.81
2023-03-06T23:57:25.472Z,99736.44
2023-03-06T23:59:53.357Z,99738.28
